sensor_id;sensor_type;location;lat;lon;timestamp;P1;durP1;ratioP1;P2;durP2;ratioP2
57856;SDS011;43683;48.650;9.290;2022-10-16T00:01:19;2.90;;;1.70;;
57856;SDS011;43683;48.650;9.290;2022-10-16T00:03:46;2.08;;;1.60;;
57856;SDS011;43683;48.650;9.290;2022-10-16T00:06:13;2.38;;;1.50;;
57856;SDS011;43683;48.650;9.290;2022-10-16T00:08:40;4.30;;;1.63;;
57856;SDS011;43683;48.650;9.290;2022-10-16T00:11:06;3.05;;;1.60;;
57856;SDS011;43683;48.650;9.290;2022-10-16T00:13:35;2.72;;;1.65;;
57856;SDS011;43683;48.650;9.290;2022-10-16T00:16:02;4.32;;;1.80;;
57856;SDS011;43683;48.650;9.290;2022-10-16T00:18:29;3.13;;;1.70;;
57856;SDS011;43683;48.650;9.290;2022-10-16T00:20:55;2.33;;;1.60;;
57856;SDS011;43683;48.650;9.290;2022-10-16T00:23:25;2.53;;;1.73;;
57856;SDS011;43683;48.650;9.290;2022-10-16T00:25:55;4.22;;;1.88;;
57856;SDS011;43683;48.650;9.290;2022-10-16T00:28:25;4.18;;;2.10;;
57856;SDS011;43683;48.650;9.290;2022-10-16T00:30:51;4.00;;;2.40;;
57856;SDS011;43683;48.650;9.290;2022-10-16T00:33:17;5.43;;;2.13;;
57856;SDS011;43683;48.650;9.290;2022-10-16T00:35:42;4.80;;;2.38;;
57856;SDS011;43683;48.650;9.290;2022-10-16T00:38:08;2.80;;;1.92;;
57856;SDS011;43683;48.650;9.290;2022-10-16T00:40:34;4.80;;;2.53;;
57856;SDS011;43683;48.650;9.290;2022-10-16T00:42:59;5.70;;;2.08;;
57856;SDS011;43683;48.650;9.290;2022-10-16T00:45:25;3.83;;;2.30;;
57856;SDS011;43683;48.650;9.290;2022-10-16T00:47:51;2.50;;;1.90;;
57856;SDS011;43683;48.650;9.290;2022-10-16T00:50:28;3.83;;;2.20;;
57856;SDS011;43683;48.650;9.290;2022-10-16T00:52:56;2.35;;;1.70;;
57856;SDS011;43683;48.650;9.290;2022-10-16T00:55:23;2.35;;;2.03;;
57856;SDS011;43683;48.650;9.290;2022-10-16T00:57:50;3.17;;;1.80;;
57856;SDS011;43683;48.650;9.290;2022-10-16T01:00:19;2.63;;;1.40;;
57856;SDS011;43683;48.650;9.290;2022-10-16T01:02:57;4.63;;;2.05;;
57856;SDS011;43683;48.650;9.290;2022-10-16T01:05:42;3.20;;;1.70;;
57856;SDS011;43683;48.650;9.290;2022-10-16T01:08:18;2.55;;;1.73;;
57856;SDS011;43683;48.650;9.290;2022-10-16T01:10:57;3.90;;;2.10;;
57856;SDS011;43683;48.650;9.290;2022-10-16T01:13:33;3.13;;;1.73;;
57856;SDS011;43683;48.650;9.290;2022-10-16T01:16:07;4.57;;;1.80;;
57856;SDS011;43683;48.650;9.290;2022-10-16T01:29:18;3.28;;;1.60;;
57856;SDS011;43683;48.650;9.290;2022-10-16T01:31:57;4.50;;;1.40;;
57856;SDS011;43683;48.650;9.290;2022-10-16T01:37:20;4.95;;;1.65;;
57856;SDS011;43683;48.650;9.290;2022-10-16T01:39:53;2.50;;;1.90;;
57856;SDS011;43683;48.650;9.290;2022-10-16T01:42:24;3.90;;;2.28;;
57856;SDS011;43683;48.650;9.290;2022-10-16T01:44:56;3.72;;;1.80;;
57856;SDS011;43683;48.650;9.290;2022-10-16T01:47:23;2.13;;;1.67;;
57856;SDS011;43683;48.650;9.290;2022-10-16T01:49:51;4.85;;;2.33;;
57856;SDS011;43683;48.650;9.290;2022-10-16T01:52:19;5.37;;;2.00;;
57856;SDS011;43683;48.650;9.290;2022-10-16T01:54:48;3.92;;;2.00;;
57856;SDS011;43683;48.650;9.290;2022-10-16T01:57:17;3.92;;;1.90;;
57856;SDS011;43683;48.650;9.290;2022-10-16T01:59:46;4.13;;;2.00;;
57856;SDS011;43683;48.650;9.290;2022-10-16T02:02:15;7.78;;;2.00;;
57856;SDS011;43683;48.650;9.290;2022-10-16T02:04:44;2.63;;;1.80;;
57856;SDS011;43683;48.650;9.290;2022-10-16T02:07:12;4.72;;;2.10;;
57856;SDS011;43683;48.650;9.290;2022-10-16T02:09:39;4.65;;;1.98;;
57856;SDS011;43683;48.650;9.290;2022-10-16T02:12:10;3.13;;;1.58;;
57856;SDS011;43683;48.650;9.290;2022-10-16T02:14:44;4.13;;;1.95;;
57856;SDS011;43683;48.650;9.290;2022-10-16T02:17:13;3.08;;;1.83;;
57856;SDS011;43683;48.650;9.290;2022-10-16T02:19:42;2.92;;;1.88;;
57856;SDS011;43683;48.650;9.290;2022-10-16T02:22:12;4.63;;;2.38;;
57856;SDS011;43683;48.650;9.290;2022-10-16T02:24:47;3.42;;;2.00;;
57856;SDS011;43683;48.650;9.290;2022-10-16T02:27:27;4.03;;;2.10;;
57856;SDS011;43683;48.650;9.290;2022-10-16T02:30:17;5.70;;;2.22;;
57856;SDS011;43683;48.650;9.290;2022-10-16T02:32:51;4.45;;;2.33;;
57856;SDS011;43683;48.650;9.290;2022-10-16T02:35:18;4.25;;;2.33;;
57856;SDS011;43683;48.650;9.290;2022-10-16T02:40:12;4.00;;;2.10;;
57856;SDS011;43683;48.650;9.290;2022-10-16T02:42:39;3.78;;;1.63;;
57856;SDS011;43683;48.650;9.290;2022-10-16T02:45:05;3.77;;;1.90;;
57856;SDS011;43683;48.650;9.290;2022-10-16T02:47:32;3.50;;;1.73;;
57856;SDS011;43683;48.650;9.290;2022-10-16T02:49:58;3.78;;;1.83;;
57856;SDS011;43683;48.650;9.290;2022-10-16T02:52:24;4.35;;;2.10;;
57856;SDS011;43683;48.650;9.290;2022-10-16T02:54:49;2.92;;;1.88;;
57856;SDS011;43683;48.650;9.290;2022-10-16T02:57:15;2.97;;;1.80;;
57856;SDS011;43683;48.650;9.290;2022-10-16T02:59:41;3.83;;;2.10;;
57856;SDS011;43683;48.650;9.290;2022-10-16T03:02:06;3.80;;;2.10;;
57856;SDS011;43683;48.650;9.290;2022-10-16T03:04:32;5.20;;;2.50;;
57856;SDS011;43683;48.650;9.290;2022-10-16T03:06:57;5.05;;;3.03;;
57856;SDS011;43683;48.650;9.290;2022-10-16T03:09:23;5.18;;;2.60;;
57856;SDS011;43683;48.650;9.290;2022-10-16T03:11:48;6.15;;;2.67;;
57856;SDS011;43683;48.650;9.290;2022-10-16T03:14:14;3.33;;;2.13;;
57856;SDS011;43683;48.650;9.290;2022-10-16T03:16:39;5.47;;;2.35;;
57856;SDS011;43683;48.650;9.290;2022-10-16T03:19:05;3.60;;;2.47;;
57856;SDS011;43683;48.650;9.290;2022-10-16T03:21:30;4.93;;;2.55;;
57856;SDS011;43683;48.650;9.290;2022-10-16T03:23:56;5.10;;;2.70;;
57856;SDS011;43683;48.650;9.290;2022-10-16T03:26:22;5.25;;;3.20;;
57856;SDS011;43683;48.650;9.290;2022-10-16T03:28:47;5.38;;;2.70;;
57856;SDS011;43683;48.650;9.290;2022-10-16T03:31:13;6.22;;;2.75;;
57856;SDS011;43683;48.650;9.290;2022-10-16T03:33:38;4.45;;;2.83;;
57856;SDS011;43683;48.650;9.290;2022-10-16T03:36:04;5.00;;;2.70;;
57856;SDS011;43683;48.650;9.290;2022-10-16T03:38:29;2.72;;;2.20;;
57856;SDS011;43683;48.650;9.290;2022-10-16T03:40:55;3.85;;;2.40;;
57856;SDS011;43683;48.650;9.290;2022-10-16T03:43:20;2.53;;;2.20;;
57856;SDS011;43683;48.650;9.290;2022-10-16T03:45:46;5.70;;;2.63;;
57856;SDS011;43683;48.650;9.290;2022-10-16T03:48:11;4.00;;;2.47;;
57856;SDS011;43683;48.650;9.290;2022-10-16T03:50:37;4.60;;;2.63;;
57856;SDS011;43683;48.650;9.290;2022-10-16T03:53:03;4.85;;;2.50;;
57856;SDS011;43683;48.650;9.290;2022-10-16T03:55:28;5.20;;;2.40;;
57856;SDS011;43683;48.650;9.290;2022-10-16T03:57:54;4.25;;;2.55;;
57856;SDS011;43683;48.650;9.290;2022-10-16T04:00:19;3.80;;;2.58;;
57856;SDS011;43683;48.650;9.290;2022-10-16T04:02:45;4.90;;;2.55;;
57856;SDS011;43683;48.650;9.290;2022-10-16T04:05:11;6.97;;;2.70;;
57856;SDS011;43683;48.650;9.290;2022-10-16T04:07:36;3.90;;;2.45;;
57856;SDS011;43683;48.650;9.290;2022-10-16T04:10:03;4.43;;;2.40;;
57856;SDS011;43683;48.650;9.290;2022-10-16T04:12:29;3.15;;;2.22;;
57856;SDS011;43683;48.650;9.290;2022-10-16T04:14:54;3.75;;;2.63;;
57856;SDS011;43683;48.650;9.290;2022-10-16T04:17:20;3.80;;;2.28;;
57856;SDS011;43683;48.650;9.290;2022-10-16T04:19:45;4.85;;;2.25;;
57856;SDS011;43683;48.650;9.290;2022-10-16T04:22:11;3.88;;;2.17;;
57856;SDS011;43683;48.650;9.290;2022-10-16T04:24:36;4.57;;;2.22;;
57856;SDS011;43683;48.650;9.290;2022-10-16T04:27:02;3.03;;;2.05;;
57856;SDS011;43683;48.650;9.290;2022-10-16T04:29:28;5.63;;;2.25;;
57856;SDS011;43683;48.650;9.290;2022-10-16T04:31:53;7.80;;;2.40;;
57856;SDS011;43683;48.650;9.290;2022-10-16T04:34:19;4.40;;;2.50;;
57856;SDS011;43683;48.650;9.290;2022-10-16T04:36:46;5.18;;;2.45;;
57856;SDS011;43683;48.650;9.290;2022-10-16T04:39:13;4.57;;;2.38;;
57856;SDS011;43683;48.650;9.290;2022-10-16T04:41:38;4.20;;;2.45;;
57856;SDS011;43683;48.650;9.290;2022-10-16T04:44:04;3.88;;;2.30;;
57856;SDS011;43683;48.650;9.290;2022-10-16T04:46:29;3.35;;;2.53;;
57856;SDS011;43683;48.650;9.290;2022-10-16T04:48:55;4.72;;;2.70;;
57856;SDS011;43683;48.650;9.290;2022-10-16T04:51:20;6.05;;;2.30;;
57856;SDS011;43683;48.650;9.290;2022-10-16T04:53:46;3.55;;;2.20;;
57856;SDS011;43683;48.650;9.290;2022-10-16T04:56:11;4.60;;;2.67;;
57856;SDS011;43683;48.650;9.290;2022-10-16T04:58:37;4.95;;;2.17;;
57856;SDS011;43683;48.650;9.290;2022-10-16T05:01:02;4.63;;;2.42;;
57856;SDS011;43683;48.650;9.290;2022-10-16T05:03:28;2.92;;;2.00;;
57856;SDS011;43683;48.650;9.290;2022-10-16T05:05:54;3.15;;;2.20;;
57856;SDS011;43683;48.650;9.290;2022-10-16T05:08:19;3.70;;;2.33;;
57856;SDS011;43683;48.650;9.290;2022-10-16T05:10:45;4.05;;;2.30;;
57856;SDS011;43683;48.650;9.290;2022-10-16T05:13:11;5.30;;;2.25;;
57856;SDS011;43683;48.650;9.290;2022-10-16T05:15:36;4.50;;;2.70;;
57856;SDS011;43683;48.650;9.290;2022-10-16T05:18:02;3.40;;;2.25;;
57856;SDS011;43683;48.650;9.290;2022-10-16T05:20:28;5.18;;;2.90;;
57856;SDS011;43683;48.650;9.290;2022-10-16T05:22:54;7.38;;;3.63;;
57856;SDS011;43683;48.650;9.290;2022-10-16T05:25:19;7.60;;;4.03;;
57856;SDS011;43683;48.650;9.290;2022-10-16T05:27:48;6.15;;;3.47;;
57856;SDS011;43683;48.650;9.290;2022-10-16T05:30:14;7.78;;;3.50;;
57856;SDS011;43683;48.650;9.290;2022-10-16T05:32:40;5.60;;;3.42;;
57856;SDS011;43683;48.650;9.290;2022-10-16T05:35:06;6.40;;;3.13;;
57856;SDS011;43683;48.650;9.290;2022-10-16T05:37:32;5.70;;;3.40;;
57856;SDS011;43683;48.650;9.290;2022-10-16T05:39:57;4.78;;;3.10;;
57856;SDS011;43683;48.650;9.290;2022-10-16T05:42:23;5.72;;;3.08;;
57856;SDS011;43683;48.650;9.290;2022-10-16T05:44:48;6.85;;;3.50;;
57856;SDS011;43683;48.650;9.290;2022-10-16T05:47:14;4.30;;;2.33;;
57856;SDS011;43683;48.650;9.290;2022-10-16T05:49:40;4.28;;;2.42;;
57856;SDS011;43683;48.650;9.290;2022-10-16T05:52:05;5.53;;;2.25;;
57856;SDS011;43683;48.650;9.290;2022-10-16T05:54:31;4.38;;;2.40;;
57856;SDS011;43683;48.650;9.290;2022-10-16T05:56:56;4.05;;;2.55;;
57856;SDS011;43683;48.650;9.290;2022-10-16T05:59:22;4.78;;;2.85;;
57856;SDS011;43683;48.650;9.290;2022-10-16T06:01:48;4.65;;;2.50;;
57856;SDS011;43683;48.650;9.290;2022-10-16T06:04:14;6.55;;;2.75;;
57856;SDS011;43683;48.650;9.290;2022-10-16T06:06:39;8.65;;;2.75;;
57856;SDS011;43683;48.650;9.290;2022-10-16T06:09:05;6.30;;;3.63;;
57856;SDS011;43683;48.650;9.290;2022-10-16T06:11:31;3.45;;;2.40;;
57856;SDS011;43683;48.650;9.290;2022-10-16T06:13:58;5.35;;;2.75;;
57856;SDS011;43683;48.650;9.290;2022-10-16T06:16:27;6.53;;;2.17;;
57856;SDS011;43683;48.650;9.290;2022-10-16T06:18:54;4.47;;;2.35;;
57856;SDS011;43683;48.650;9.290;2022-10-16T06:21:25;4.25;;;2.50;;
57856;SDS011;43683;48.650;9.290;2022-10-16T06:23:52;4.25;;;2.22;;
57856;SDS011;43683;48.650;9.290;2022-10-16T06:26:20;6.38;;;2.45;;
57856;SDS011;43683;48.650;9.290;2022-10-16T06:28:48;7.70;;;2.70;;
57856;SDS011;43683;48.650;9.290;2022-10-16T06:31:14;3.33;;;2.38;;
57856;SDS011;43683;48.650;9.290;2022-10-16T06:33:41;3.90;;;2.40;;
57856;SDS011;43683;48.650;9.290;2022-10-16T06:36:08;6.60;;;2.40;;
57856;SDS011;43683;48.650;9.290;2022-10-16T06:38:34;4.43;;;2.03;;
57856;SDS011;43683;48.650;9.290;2022-10-16T06:41:00;2.93;;;2.00;;
57856;SDS011;43683;48.650;9.290;2022-10-16T06:43:26;2.75;;;1.70;;
57856;SDS011;43683;48.650;9.290;2022-10-16T06:45:57;3.22;;;2.10;;
57856;SDS011;43683;48.650;9.290;2022-10-16T06:48:23;3.63;;;1.77;;
57856;SDS011;43683;48.650;9.290;2022-10-16T06:51:00;4.50;;;1.80;;
57856;SDS011;43683;48.650;9.290;2022-10-16T06:53:33;5.25;;;3.45;;
57856;SDS011;43683;48.650;9.290;2022-10-16T06:56:07;4.43;;;1.70;;
57856;SDS011;43683;48.650;9.290;2022-10-16T06:58:37;2.60;;;1.60;;
57856;SDS011;43683;48.650;9.290;2022-10-16T07:01:03;3.60;;;1.70;;
57856;SDS011;43683;48.650;9.290;2022-10-16T07:03:29;2.13;;;1.73;;
57856;SDS011;43683;48.650;9.290;2022-10-16T07:05:55;3.00;;;1.42;;
57856;SDS011;43683;48.650;9.290;2022-10-16T07:08:21;3.05;;;1.42;;
57856;SDS011;43683;48.650;9.290;2022-10-16T07:10:46;3.95;;;1.55;;
57856;SDS011;43683;48.650;9.290;2022-10-16T07:13:12;4.13;;;1.50;;
57856;SDS011;43683;48.650;9.290;2022-10-16T07:15:39;2.60;;;1.40;;
57856;SDS011;43683;48.650;9.290;2022-10-16T07:18:05;4.70;;;1.45;;
57856;SDS011;43683;48.650;9.290;2022-10-16T07:20:31;2.60;;;1.63;;
57856;SDS011;43683;48.650;9.290;2022-10-16T07:22:56;2.47;;;1.52;;
57856;SDS011;43683;48.650;9.290;2022-10-16T07:25:22;3.63;;;1.30;;
57856;SDS011;43683;48.650;9.290;2022-10-16T07:27:47;2.97;;;1.70;;
57856;SDS011;43683;48.650;9.290;2022-10-16T07:30:13;3.65;;;1.67;;
57856;SDS011;43683;48.650;9.290;2022-10-16T07:32:38;3.53;;;1.60;;
57856;SDS011;43683;48.650;9.290;2022-10-16T07:35:04;7.30;;;1.80;;
57856;SDS011;43683;48.650;9.290;2022-10-16T07:37:30;3.05;;;1.80;;
57856;SDS011;43683;48.650;9.290;2022-10-16T07:39:56;2.72;;;1.70;;
57856;SDS011;43683;48.650;9.290;2022-10-16T07:42:21;2.78;;;1.95;;
57856;SDS011;43683;48.650;9.290;2022-10-16T07:44:47;5.25;;;2.53;;
57856;SDS011;43683;48.650;9.290;2022-10-16T07:47:12;4.75;;;1.95;;
57856;SDS011;43683;48.650;9.290;2022-10-16T07:49:38;3.08;;;1.70;;
57856;SDS011;43683;48.650;9.290;2022-10-16T07:52:03;4.68;;;1.70;;
57856;SDS011;43683;48.650;9.290;2022-10-16T07:54:29;1.80;;;1.35;;
57856;SDS011;43683;48.650;9.290;2022-10-16T07:56:54;3.22;;;1.50;;
57856;SDS011;43683;48.650;9.290;2022-10-16T07:59:20;4.68;;;1.95;;
57856;SDS011;43683;48.650;9.290;2022-10-16T08:01:45;3.70;;;2.20;;
57856;SDS011;43683;48.650;9.290;2022-10-16T08:04:11;3.55;;;1.63;;
57856;SDS011;43683;48.650;9.290;2022-10-16T08:06:37;2.00;;;1.80;;
57856;SDS011;43683;48.650;9.290;2022-10-16T08:09:04;4.03;;;1.70;;
57856;SDS011;43683;48.650;9.290;2022-10-16T08:11:30;3.20;;;1.40;;
57856;SDS011;43683;48.650;9.290;2022-10-16T08:13:56;3.13;;;1.67;;
57856;SDS011;43683;48.650;9.290;2022-10-16T08:16:21;4.38;;;1.35;;
57856;SDS011;43683;48.650;9.290;2022-10-16T08:18:47;3.53;;;1.90;;
57856;SDS011;43683;48.650;9.290;2022-10-16T08:21:14;4.15;;;1.98;;
57856;SDS011;43683;48.650;9.290;2022-10-16T08:23:41;3.17;;;1.70;;
57856;SDS011;43683;48.650;9.290;2022-10-16T08:26:07;4.32;;;1.63;;
57856;SDS011;43683;48.650;9.290;2022-10-16T08:28:33;3.03;;;1.60;;
57856;SDS011;43683;48.650;9.290;2022-10-16T08:33:32;2.15;;;1.45;;
57856;SDS011;43683;48.650;9.290;2022-10-16T08:36:00;2.58;;;1.23;;
57856;SDS011;43683;48.650;9.290;2022-10-16T08:38:25;3.13;;;1.33;;
57856;SDS011;43683;48.650;9.290;2022-10-16T08:40:51;3.05;;;1.30;;
57856;SDS011;43683;48.650;9.290;2022-10-16T08:46:06;2.47;;;1.50;;
57856;SDS011;43683;48.650;9.290;2022-10-16T08:48:55;6.00;;;1.50;;
57856;SDS011;43683;48.650;9.290;2022-10-16T08:51:24;2.78;;;1.30;;
57856;SDS011;43683;48.650;9.290;2022-10-16T08:53:56;2.63;;;1.38;;
57856;SDS011;43683;48.650;9.290;2022-10-16T08:56:29;2.10;;;1.30;;
57856;SDS011;43683;48.650;9.290;2022-10-16T08:58:57;1.60;;;1.45;;
57856;SDS011;43683;48.650;9.290;2022-10-16T09:01:23;2.95;;;1.50;;
57856;SDS011;43683;48.650;9.290;2022-10-16T09:04:22;2.60;;;1.38;;
57856;SDS011;43683;48.650;9.290;2022-10-16T09:07:26;2.72;;;1.45;;
57856;SDS011;43683;48.650;9.290;2022-10-16T09:15:49;2.65;;;1.40;;
57856;SDS011;43683;48.650;9.290;2022-10-16T09:18:29;3.50;;;1.75;;
57856;SDS011;43683;48.650;9.290;2022-10-16T09:21:18;1.48;;;1.17;;
57856;SDS011;43683;48.650;9.290;2022-10-16T09:23:48;1.58;;;1.10;;
57856;SDS011;43683;48.650;9.290;2022-10-16T09:26:15;4.85;;;1.52;;
57856;SDS011;43683;48.650;9.290;2022-10-16T09:28:43;2.08;;;1.38;;
57856;SDS011;43683;48.650;9.290;2022-10-16T09:31:12;3.58;;;1.70;;
57856;SDS011;43683;48.650;9.290;2022-10-16T09:33:48;1.63;;;1.20;;
57856;SDS011;43683;48.650;9.290;2022-10-16T09:36:23;3.20;;;1.30;;
57856;SDS011;43683;48.650;9.290;2022-10-16T09:39:01;4.00;;;1.40;;
57856;SDS011;43683;48.650;9.290;2022-10-16T09:41:29;4.38;;;1.10;;
57856;SDS011;43683;48.650;9.290;2022-10-16T09:43:55;2.88;;;1.33;;
57856;SDS011;43683;48.650;9.290;2022-10-16T09:48:58;1.58;;;1.10;;
57856;SDS011;43683;48.650;9.290;2022-10-16T09:54:11;2.85;;;1.23;;
57856;SDS011;43683;48.650;9.290;2022-10-16T09:56:42;2.70;;;1.48;;
57856;SDS011;43683;48.650;9.290;2022-10-16T09:59:14;2.90;;;1.20;;
57856;SDS011;43683;48.650;9.290;2022-10-16T10:04:15;1.77;;;1.00;;
57856;SDS011;43683;48.650;9.290;2022-10-16T10:06:48;3.10;;;1.47;;
57856;SDS011;43683;48.650;9.290;2022-10-16T10:11:59;1.88;;;1.00;;
57856;SDS011;43683;48.650;9.290;2022-10-16T10:19:30;2.70;;;1.02;;
57856;SDS011;43683;48.650;9.290;2022-10-16T10:30:21;3.72;;;1.23;;
57856;SDS011;43683;48.650;9.290;2022-10-16T10:35:45;2.53;;;1.02;;
57856;SDS011;43683;48.650;9.290;2022-10-16T10:40:52;3.38;;;1.02;;
57856;SDS011;43683;48.650;9.290;2022-10-16T11:05:57;2.08;;;0.90;;
57856;SDS011;43683;48.650;9.290;2022-10-16T11:08:29;3.40;;;1.10;;
57856;SDS011;43683;48.650;9.290;2022-10-16T11:11:10;1.65;;;0.85;;
57856;SDS011;43683;48.650;9.290;2022-10-16T11:16:54;2.67;;;1.05;;
57856;SDS011;43683;48.650;9.290;2022-10-16T11:25:20;1.60;;;0.90;;
57856;SDS011;43683;48.650;9.290;2022-10-16T11:27:49;1.95;;;0.80;;
57856;SDS011;43683;48.650;9.290;2022-10-16T11:32:59;3.00;;;0.80;;
57856;SDS011;43683;48.650;9.290;2022-10-16T11:35:44;1.00;;;0.88;;
57856;SDS011;43683;48.650;9.290;2022-10-16T11:38:23;1.60;;;1.00;;
57856;SDS011;43683;48.650;9.290;2022-10-16T11:41:24;1.92;;;1.10;;
57856;SDS011;43683;48.650;9.290;2022-10-16T11:46:35;1.92;;;0.90;;
57856;SDS011;43683;48.650;9.290;2022-10-16T11:51:38;1.65;;;0.90;;
57856;SDS011;43683;48.650;9.290;2022-10-16T11:56:38;1.48;;;0.80;;
57856;SDS011;43683;48.650;9.290;2022-10-16T12:01:53;2.00;;;0.85;;
57856;SDS011;43683;48.650;9.290;2022-10-16T12:04:36;2.42;;;1.10;;
57856;SDS011;43683;48.650;9.290;2022-10-16T12:07:21;0.93;;;0.73;;
57856;SDS011;43683;48.650;9.290;2022-10-16T12:09:52;2.05;;;0.90;;
57856;SDS011;43683;48.650;9.290;2022-10-16T12:12:25;3.43;;;0.87;;
57856;SDS011;43683;48.650;9.290;2022-10-16T12:15:02;1.20;;;0.80;;
57856;SDS011;43683;48.650;9.290;2022-10-16T12:17:49;1.38;;;0.82;;
57856;SDS011;43683;48.650;9.290;2022-10-16T12:22:50;1.92;;;0.75;;
57856;SDS011;43683;48.650;9.290;2022-10-16T12:25:24;1.13;;;0.80;;
57856;SDS011;43683;48.650;9.290;2022-10-16T12:30:24;1.88;;;1.00;;
57856;SDS011;43683;48.650;9.290;2022-10-16T12:32:59;1.38;;;0.82;;
57856;SDS011;43683;48.650;9.290;2022-10-16T12:35:30;3.17;;;0.90;;
57856;SDS011;43683;48.650;9.290;2022-10-16T12:38:20;2.55;;;1.05;;
57856;SDS011;43683;48.650;9.290;2022-10-16T12:41:12;1.27;;;0.80;;
57856;SDS011;43683;48.650;9.290;2022-10-16T12:48:35;1.85;;;0.85;;
57856;SDS011;43683;48.650;9.290;2022-10-16T12:52:03;1.23;;;0.80;;
57856;SDS011;43683;48.650;9.290;2022-10-16T12:54:04;2.28;;;1.00;;
57856;SDS011;43683;48.650;9.290;2022-10-16T13:07:56;2.90;;;1.13;;
57856;SDS011;43683;48.650;9.290;2022-10-16T13:13:22;2.10;;;0.90;;
57856;SDS011;43683;48.650;9.290;2022-10-16T13:22:13;2.72;;;1.02;;
57856;SDS011;43683;48.650;9.290;2022-10-16T13:27:51;1.27;;;0.85;;
57856;SDS011;43683;48.650;9.290;2022-10-16T13:30:25;2.10;;;1.00;;
57856;SDS011;43683;48.650;9.290;2022-10-16T13:32:59;1.67;;;0.80;;
57856;SDS011;43683;48.650;9.290;2022-10-16T13:35:52;1.00;;;0.93;;
57856;SDS011;43683;48.650;9.290;2022-10-16T13:38:22;2.65;;;1.10;;
57856;SDS011;43683;48.650;9.290;2022-10-16T13:43:20;1.85;;;0.95;;
57856;SDS011;43683;48.650;9.290;2022-10-16T13:45:52;2.40;;;1.00;;
57856;SDS011;43683;48.650;9.290;2022-10-16T13:48:19;3.80;;;1.20;;
57856;SDS011;43683;48.650;9.290;2022-10-16T13:50:45;2.23;;;1.03;;
57856;SDS011;43683;48.650;9.290;2022-10-16T13:53:14;3.63;;;1.10;;
57856;SDS011;43683;48.650;9.290;2022-10-16T13:55:40;3.88;;;1.20;;
57856;SDS011;43683;48.650;9.290;2022-10-16T13:58:11;2.73;;;1.00;;
57856;SDS011;43683;48.650;9.290;2022-10-16T14:00:52;2.47;;;1.05;;
57856;SDS011;43683;48.650;9.290;2022-10-16T14:03:20;1.20;;;1.00;;
57856;SDS011;43683;48.650;9.290;2022-10-16T14:05:49;1.97;;;1.00;;
57856;SDS011;43683;48.650;9.290;2022-10-16T14:08:19;2.30;;;1.10;;
57856;SDS011;43683;48.650;9.290;2022-10-16T14:10:49;1.10;;;1.00;;
57856;SDS011;43683;48.650;9.290;2022-10-16T14:13:19;3.95;;;1.20;;
57856;SDS011;43683;48.650;9.290;2022-10-16T14:15:49;1.40;;;1.02;;
57856;SDS011;43683;48.650;9.290;2022-10-16T14:18:20;2.58;;;1.08;;
57856;SDS011;43683;48.650;9.290;2022-10-16T14:20:48;1.58;;;1.20;;
57856;SDS011;43683;48.650;9.290;2022-10-16T14:26:05;1.33;;;0.95;;
57856;SDS011;43683;48.650;9.290;2022-10-16T14:28:33;1.83;;;1.08;;
57856;SDS011;43683;48.650;9.290;2022-10-16T14:31:00;3.37;;;1.20;;
57856;SDS011;43683;48.650;9.290;2022-10-16T14:38:42;2.08;;;1.13;;
57856;SDS011;43683;48.650;9.290;2022-10-16T14:41:13;1.08;;;0.90;;
57856;SDS011;43683;48.650;9.290;2022-10-16T14:43:40;3.42;;;1.40;;
57856;SDS011;43683;48.650;9.290;2022-10-16T14:46:16;1.60;;;1.10;;
57856;SDS011;43683;48.650;9.290;2022-10-16T14:48:46;2.65;;;1.40;;
57856;SDS011;43683;48.650;9.290;2022-10-16T14:51:19;2.63;;;1.23;;
57856;SDS011;43683;48.650;9.290;2022-10-16T14:53:45;2.80;;;1.10;;
57856;SDS011;43683;48.650;9.290;2022-10-16T14:56:16;1.43;;;1.00;;
57856;SDS011;43683;48.650;9.290;2022-10-16T14:58:47;1.02;;;0.80;;
57856;SDS011;43683;48.650;9.290;2022-10-16T15:01:14;3.28;;;1.00;;
57856;SDS011;43683;48.650;9.290;2022-10-16T15:03:40;5.47;;;1.33;;
57856;SDS011;43683;48.650;9.290;2022-10-16T15:06:09;1.63;;;1.25;;
57856;SDS011;43683;48.650;9.290;2022-10-16T15:08:36;3.20;;;1.15;;
57856;SDS011;43683;48.650;9.290;2022-10-16T15:11:02;2.15;;;1.27;;
57856;SDS011;43683;48.650;9.290;2022-10-16T15:13:28;3.80;;;0.85;;
57856;SDS011;43683;48.650;9.290;2022-10-16T15:15:53;1.50;;;0.93;;
57856;SDS011;43683;48.650;9.290;2022-10-16T15:18:19;6.22;;;1.25;;
57856;SDS011;43683;48.650;9.290;2022-10-16T15:20:47;3.53;;;1.00;;
57856;SDS011;43683;48.650;9.290;2022-10-16T15:23:15;2.38;;;1.20;;
57856;SDS011;43683;48.650;9.290;2022-10-16T15:25:47;1.65;;;1.10;;
57856;SDS011;43683;48.650;9.290;2022-10-16T15:28:20;2.10;;;1.10;;
57856;SDS011;43683;48.650;9.290;2022-10-16T15:30:49;3.40;;;1.00;;
57856;SDS011;43683;48.650;9.290;2022-10-16T15:33:23;2.58;;;1.20;;
57856;SDS011;43683;48.650;9.290;2022-10-16T15:35:51;2.78;;;1.15;;
57856;SDS011;43683;48.650;9.290;2022-10-16T15:38:18;2.78;;;1.48;;
57856;SDS011;43683;48.650;9.290;2022-10-16T15:40:45;2.75;;;1.30;;
57856;SDS011;43683;48.650;9.290;2022-10-16T15:43:12;4.60;;;1.30;;
57856;SDS011;43683;48.650;9.290;2022-10-16T15:45:37;1.10;;;1.00;;
57856;SDS011;43683;48.650;9.290;2022-10-16T15:48:03;2.08;;;1.23;;
57856;SDS011;43683;48.650;9.290;2022-10-16T15:50:29;1.75;;;1.23;;
57856;SDS011;43683;48.650;9.290;2022-10-16T15:52:56;1.85;;;1.20;;
57856;SDS011;43683;48.650;9.290;2022-10-16T15:55:22;4.03;;;1.65;;
57856;SDS011;43683;48.650;9.290;2022-10-16T15:57:48;3.28;;;1.42;;
57856;SDS011;43683;48.650;9.290;2022-10-16T16:00:15;3.78;;;1.55;;
57856;SDS011;43683;48.650;9.290;2022-10-16T16:02:43;2.38;;;1.45;;
57856;SDS011;43683;48.650;9.290;2022-10-16T16:05:14;3.28;;;1.73;;
57856;SDS011;43683;48.650;9.290;2022-10-16T16:07:40;4.18;;;1.42;;
57856;SDS011;43683;48.650;9.290;2022-10-16T16:10:06;2.50;;;1.40;;
57856;SDS011;43683;48.650;9.290;2022-10-16T16:12:37;3.67;;;2.03;;
57856;SDS011;43683;48.650;9.290;2022-10-16T16:15:04;3.90;;;1.63;;
57856;SDS011;43683;48.650;9.290;2022-10-16T16:17:31;3.58;;;1.58;;
57856;SDS011;43683;48.650;9.290;2022-10-16T16:19:57;4.25;;;1.98;;
57856;SDS011;43683;48.650;9.290;2022-10-16T16:22:22;10.63;;;3.92;;
57856;SDS011;43683;48.650;9.290;2022-10-16T16:24:48;12.82;;;5.65;;
57856;SDS011;43683;48.650;9.290;2022-10-16T16:27:14;11.73;;;5.10;;
57856;SDS011;43683;48.650;9.290;2022-10-16T16:29:39;3.53;;;2.13;;
57856;SDS011;43683;48.650;9.290;2022-10-16T16:32:05;4.45;;;2.30;;
57856;SDS011;43683;48.650;9.290;2022-10-16T16:34:31;6.88;;;2.38;;
57856;SDS011;43683;48.650;9.290;2022-10-16T16:36:56;3.17;;;1.92;;
57856;SDS011;43683;48.650;9.290;2022-10-16T16:39:22;4.13;;;2.00;;
57856;SDS011;43683;48.650;9.290;2022-10-16T16:41:48;8.05;;;2.55;;
57856;SDS011;43683;48.650;9.290;2022-10-16T16:44:14;6.95;;;2.00;;
57856;SDS011;43683;48.650;9.290;2022-10-16T16:46:41;5.85;;;2.30;;
57856;SDS011;43683;48.650;9.290;2022-10-16T16:49:09;6.35;;;2.20;;
57856;SDS011;43683;48.650;9.290;2022-10-16T16:51:36;7.18;;;2.08;;
57856;SDS011;43683;48.650;9.290;2022-10-16T16:54:03;6.30;;;2.40;;
57856;SDS011;43683;48.650;9.290;2022-10-16T16:56:28;7.20;;;2.20;;
57856;SDS011;43683;48.650;9.290;2022-10-16T16:58:54;4.82;;;2.47;;
57856;SDS011;43683;48.650;9.290;2022-10-16T17:03:49;5.90;;;2.55;;
57856;SDS011;43683;48.650;9.290;2022-10-16T17:06:17;3.85;;;2.38;;
57856;SDS011;43683;48.650;9.290;2022-10-16T17:08:43;3.77;;;2.13;;
57856;SDS011;43683;48.650;9.290;2022-10-16T17:11:13;5.97;;;2.45;;
57856;SDS011;43683;48.650;9.290;2022-10-16T17:13:40;4.05;;;2.78;;
57856;SDS011;43683;48.650;9.290;2022-10-16T17:16:06;4.20;;;2.40;;
57856;SDS011;43683;48.650;9.290;2022-10-16T17:18:32;6.63;;;2.33;;
57856;SDS011;43683;48.650;9.290;2022-10-16T17:20:59;7.20;;;2.53;;
57856;SDS011;43683;48.650;9.290;2022-10-16T17:23:25;9.70;;;2.50;;
57856;SDS011;43683;48.650;9.290;2022-10-16T17:25:51;4.40;;;2.17;;